Fulton, Mississippi
Current Conditions -  °F | °C
As of 9:53 PM on Monday 22 Dec 2014 (Local Time) from KTUP Reporting Station
Haze Haze  
Wind Chill: 58°   Ceiling: 300
Heat Index: 58°   Visibility: 4mi
Dew Point: 56°   Wind: 7mph
Humidity: 93%   Direction: 220°SW
Pressure: 29.7"   Gusts: NA
Location:  34.27°N, 88.41°W
Report Text: KTUP 230353Z 22006KT 4SM BR OVC003 14/13 A2970 RMK AO2 SLP055 T01440133
Loading
Personal Weather Stations






























Interactive Weather Map New forecast layout! Learn more

10-Day Weather Forecast

Advertisements
Track Severe Weather on mobile